Terminal Aerodrome Forecast
Issued by NWS

Home | Current Version | Previous Version | Text Only | Print | Product List | Glossary On
Versions: 1 2 3 4 5 6 7 8 9 10 11 12 13 14 15 16 17
000
FTUS42 KMLB 040915 AAA
TAFLEE
TAF AMD
KLEE 040915Z 0409/0506 20006KT P6SM SCT006 BKN015 OVC250
      TEMPO 0409/0412 BKN006
     FM041300 24007KT P6SM SCT030 SCT100 BKN250
     FM041900 23008KT P6SM SCT035 BKN250
     FM050000 24005KT P6SM SCT040 SCT250=

USA.gov is the U.S. government's official web portal to all federal, state and local government web resources and services.